Kilrea, United Kingdom
Current Conditions -  °F | °C
As of 4:20 AM on Friday 31 Oct 2014 (Local Time) from EGAA Reporting Station
Overcast Overcast  
Wind Chill: 59°   Ceiling: 2600
Heat Index: 59°   Visibility: 6mi
Dew Point: 55°   Wind: 10mph
Humidity: 88%   Direction: 160°SSE
Pressure: 29.71"   Gusts: NA
Location:  54.95°N, 6.56°W
Report Text: EGAA 310420Z AUTO 16009KT 9999 FEW014/// SCT020/// OVC026/// 15/13 Q1006
Loading
Personal Weather Stations






























Interactive Weather Map
Tropical Storm Tracking
New forecast layout! Learn more

10-Day Weather Forecast

Advertisements
Track Severe Weather on mobile